sensor_id;sensor_type;location;lat;lon;timestamp;P1;durP1;ratioP1;P2;durP2;ratioP2
66087;SDS011;52872;52.994;6.940;2022-11-24T00:01:12;22.92;;;11.38;;
66087;SDS011;52872;52.994;6.940;2022-11-24T00:03:41;21.52;;;11.23;;
66087;SDS011;52872;52.994;6.940;2022-11-24T00:06:13;24.48;;;10.82;;
66087;SDS011;52872;52.994;6.940;2022-11-24T00:08:42;16.88;;;9.45;;
66087;SDS011;52872;52.994;6.940;2022-11-24T00:11:17;21.08;;;9.93;;
66087;SDS011;52872;52.994;6.940;2022-11-24T00:13:46;16.10;;;9.60;;
66087;SDS011;52872;52.994;6.940;2022-11-24T00:16:17;22.63;;;10.68;;
66087;SDS011;52872;52.994;6.940;2022-11-24T00:18:49;17.55;;;10.18;;
66087;SDS011;52872;52.994;6.940;2022-11-24T00:21:18;20.48;;;9.90;;
66087;SDS011;52872;52.994;6.940;2022-11-24T00:23:46;22.70;;;10.27;;
66087;SDS011;52872;52.994;6.940;2022-11-24T00:26:17;22.85;;;10.45;;
66087;SDS011;52872;52.994;6.940;2022-11-24T00:28:46;21.15;;;9.75;;
66087;SDS011;52872;52.994;6.940;2022-11-24T00:31:22;21.20;;;9.88;;
66087;SDS011;52872;52.994;6.940;2022-11-24T00:33:55;22.45;;;9.30;;
66087;SDS011;52872;52.994;6.940;2022-11-24T00:36:24;20.38;;;9.38;;
66087;SDS011;52872;52.994;6.940;2022-11-24T00:38:53;23.90;;;8.57;;
66087;SDS011;52872;52.994;6.940;2022-11-24T00:41:21;16.85;;;7.60;;
66087;SDS011;52872;52.994;6.940;2022-11-24T00:43:49;21.42;;;8.20;;
66087;SDS011;52872;52.994;6.940;2022-11-24T00:46:17;18.55;;;8.85;;
66087;SDS011;52872;52.994;6.940;2022-11-24T00:48:45;23.10;;;8.80;;
66087;SDS011;52872;52.994;6.940;2022-11-24T00:51:12;17.52;;;8.20;;
66087;SDS011;52872;52.994;6.940;2022-11-24T00:53:41;18.00;;;8.48;;
66087;SDS011;52872;52.994;6.940;2022-11-24T00:56:09;18.75;;;7.63;;
66087;SDS011;52872;52.994;6.940;2022-11-24T00:58:37;18.02;;;8.15;;
66087;SDS011;52872;52.994;6.940;2022-11-24T01:01:09;19.95;;;8.40;;
66087;SDS011;52872;52.994;6.940;2022-11-24T01:03:38;17.80;;;7.00;;
66087;SDS011;52872;52.994;6.940;2022-11-24T01:06:06;16.00;;;7.63;;
66087;SDS011;52872;52.994;6.940;2022-11-24T01:08:37;20.73;;;7.68;;
66087;SDS011;52872;52.994;6.940;2022-11-24T01:13:43;19.52;;;7.72;;
66087;SDS011;52872;52.994;6.940;2022-11-24T01:16:20;19.52;;;7.70;;
66087;SDS011;52872;52.994;6.940;2022-11-24T01:18:55;21.08;;;7.82;;
66087;SDS011;52872;52.994;6.940;2022-11-24T01:21:23;19.73;;;6.93;;
66087;SDS011;52872;52.994;6.940;2022-11-24T01:23:50;16.45;;;7.03;;
66087;SDS011;52872;52.994;6.940;2022-11-24T01:26:18;19.17;;;6.80;;
66087;SDS011;52872;52.994;6.940;2022-11-24T01:28:51;17.75;;;7.55;;
66087;SDS011;52872;52.994;6.940;2022-11-24T01:31:21;22.02;;;7.00;;
66087;SDS011;52872;52.994;6.940;2022-11-24T01:33:49;23.27;;;7.68;;
66087;SDS011;52872;52.994;6.940;2022-11-24T01:36:16;22.33;;;7.13;;
66087;SDS011;52872;52.994;6.940;2022-11-24T01:38:44;22.25;;;7.03;;
66087;SDS011;52872;52.994;6.940;2022-11-24T01:41:12;16.35;;;5.63;;
66087;SDS011;52872;52.994;6.940;2022-11-24T01:43:42;22.05;;;7.22;;
66087;SDS011;52872;52.994;6.940;2022-11-24T01:51:28;24.10;;;6.40;;
66087;SDS011;52872;52.994;6.940;2022-11-24T01:54:04;17.58;;;6.35;;
66087;SDS011;52872;52.994;6.940;2022-11-24T01:56:34;18.27;;;6.50;;
66087;SDS011;52872;52.994;6.940;2022-11-24T01:59:06;20.13;;;6.90;;
66087;SDS011;52872;52.994;6.940;2022-11-24T02:01:37;19.88;;;6.28;;
66087;SDS011;52872;52.994;6.940;2022-11-24T02:04:05;18.67;;;6.35;;
66087;SDS011;52872;52.994;6.940;2022-11-24T02:06:36;20.75;;;6.65;;
66087;SDS011;52872;52.994;6.940;2022-11-24T02:09:07;18.52;;;6.70;;
66087;SDS011;52872;52.994;6.940;2022-11-24T02:11:57;19.40;;;6.22;;
66087;SDS011;52872;52.994;6.940;2022-11-24T02:14:27;19.88;;;5.47;;
66087;SDS011;52872;52.994;6.940;2022-11-24T02:16:54;18.98;;;5.88;;
66087;SDS011;52872;52.994;6.940;2022-11-24T02:19:43;18.08;;;5.68;;
66087;SDS011;52872;52.994;6.940;2022-11-24T02:27:43;18.65;;;5.40;;
66087;SDS011;52872;52.994;6.940;2022-11-24T02:30:16;19.35;;;5.22;;
66087;SDS011;52872;52.994;6.940;2022-11-24T02:32:43;19.42;;;5.22;;
66087;SDS011;52872;52.994;6.940;2022-11-24T02:35:11;19.65;;;5.22;;
66087;SDS011;52872;52.994;6.940;2022-11-24T02:37:39;19.73;;;5.47;;
66087;SDS011;52872;52.994;6.940;2022-11-24T02:40:06;20.42;;;6.45;;
66087;SDS011;52872;52.994;6.940;2022-11-24T02:42:35;21.13;;;6.10;;
66087;SDS011;52872;52.994;6.940;2022-11-24T02:45:05;23.67;;;5.60;;
66087;SDS011;52872;52.994;6.940;2022-11-24T02:47:34;22.80;;;5.80;;
66087;SDS011;52872;52.994;6.940;2022-11-24T02:50:01;26.48;;;5.93;;
66087;SDS011;52872;52.994;6.940;2022-11-24T02:52:28;20.40;;;4.93;;
66087;SDS011;52872;52.994;6.940;2022-11-24T02:54:55;22.20;;;4.97;;
66087;SDS011;52872;52.994;6.940;2022-11-24T02:57:22;22.80;;;5.68;;
66087;SDS011;52872;52.994;6.940;2022-11-24T02:59:48;17.83;;;4.53;;
66087;SDS011;52872;52.994;6.940;2022-11-24T03:02:16;20.20;;;4.95;;
66087;SDS011;52872;52.994;6.940;2022-11-24T03:04:42;18.63;;;5.25;;
66087;SDS011;52872;52.994;6.940;2022-11-24T03:07:09;17.20;;;5.22;;
66087;SDS011;52872;52.994;6.940;2022-11-24T03:09:36;14.35;;;4.53;;
66087;SDS011;52872;52.994;6.940;2022-11-24T03:12:04;19.17;;;4.60;;
66087;SDS011;52872;52.994;6.940;2022-11-24T03:14:31;17.83;;;5.18;;
66087;SDS011;52872;52.994;6.940;2022-11-24T03:16:58;13.80;;;4.63;;
66087;SDS011;52872;52.994;6.940;2022-11-24T03:19:25;22.90;;;5.35;;
66087;SDS011;52872;52.994;6.940;2022-11-24T03:21:52;19.90;;;4.68;;
66087;SDS011;52872;52.994;6.940;2022-11-24T03:24:19;23.83;;;5.32;;
66087;SDS011;52872;52.994;6.940;2022-11-24T03:26:46;19.27;;;4.65;;
66087;SDS011;52872;52.994;6.940;2022-11-24T03:29:13;18.83;;;5.05;;
66087;SDS011;52872;52.994;6.940;2022-11-24T03:31:39;19.67;;;5.53;;
66087;SDS011;52872;52.994;6.940;2022-11-24T03:34:06;16.90;;;4.85;;
66087;SDS011;52872;52.994;6.940;2022-11-24T03:36:33;19.17;;;4.13;;
66087;SDS011;52872;52.994;6.940;2022-11-24T03:39:00;17.95;;;4.50;;
66087;SDS011;52872;52.994;6.940;2022-11-24T03:41:27;15.63;;;3.75;;
66087;SDS011;52872;52.994;6.940;2022-11-24T03:43:54;19.00;;;4.85;;
66087;SDS011;52872;52.994;6.940;2022-11-24T03:46:21;18.15;;;3.95;;
66087;SDS011;52872;52.994;6.940;2022-11-24T03:48:48;22.27;;;4.70;;
66087;SDS011;52872;52.994;6.940;2022-11-24T03:51:15;22.58;;;4.50;;
66087;SDS011;52872;52.994;6.940;2022-11-24T03:53:42;16.42;;;4.18;;
66087;SDS011;52872;52.994;6.940;2022-11-24T03:56:09;13.07;;;3.25;;
66087;SDS011;52872;52.994;6.940;2022-11-24T03:58:35;11.48;;;4.30;;
66087;SDS011;52872;52.994;6.940;2022-11-24T04:01:02;18.95;;;3.65;;
66087;SDS011;52872;52.994;6.940;2022-11-24T04:03:29;14.27;;;3.90;;
66087;SDS011;52872;52.994;6.940;2022-11-24T04:05:56;16.30;;;3.70;;
66087;SDS011;52872;52.994;6.940;2022-11-24T04:08:23;16.30;;;4.15;;
66087;SDS011;52872;52.994;6.940;2022-11-24T04:10:51;18.67;;;4.18;;
66087;SDS011;52872;52.994;6.940;2022-11-24T04:13:20;18.98;;;4.05;;
66087;SDS011;52872;52.994;6.940;2022-11-24T04:15:49;18.75;;;4.40;;
66087;SDS011;52872;52.994;6.940;2022-11-24T04:18:17;18.17;;;3.90;;
66087;SDS011;52872;52.994;6.940;2022-11-24T04:20:44;13.13;;;3.05;;
66087;SDS011;52872;52.994;6.940;2022-11-24T04:23:11;21.10;;;4.63;;
66087;SDS011;52872;52.994;6.940;2022-11-24T04:25:38;19.88;;;4.28;;
66087;SDS011;52872;52.994;6.940;2022-11-24T04:28:07;18.42;;;3.75;;
66087;SDS011;52872;52.994;6.940;2022-11-24T04:30:34;17.05;;;4.07;;
66087;SDS011;52872;52.994;6.940;2022-11-24T04:33:01;23.02;;;4.22;;
66087;SDS011;52872;52.994;6.940;2022-11-24T04:35:28;15.75;;;3.90;;
66087;SDS011;52872;52.994;6.940;2022-11-24T04:37:55;16.63;;;4.30;;
66087;SDS011;52872;52.994;6.940;2022-11-24T04:40:22;15.93;;;3.50;;
66087;SDS011;52872;52.994;6.940;2022-11-24T04:42:52;20.58;;;4.10;;
66087;SDS011;52872;52.994;6.940;2022-11-24T04:45:21;12.30;;;3.80;;
66087;SDS011;52872;52.994;6.940;2022-11-24T04:47:48;15.43;;;3.42;;
66087;SDS011;52872;52.994;6.940;2022-11-24T04:50:15;17.52;;;3.65;;
66087;SDS011;52872;52.994;6.940;2022-11-24T04:52:42;11.70;;;3.45;;
66087;SDS011;52872;52.994;6.940;2022-11-24T04:55:09;14.38;;;3.53;;
66087;SDS011;52872;52.994;6.940;2022-11-24T04:57:36;16.85;;;3.30;;
66087;SDS011;52872;52.994;6.940;2022-11-24T05:00:03;17.42;;;3.63;;
66087;SDS011;52872;52.994;6.940;2022-11-24T05:02:31;16.60;;;4.10;;
66087;SDS011;52872;52.994;6.940;2022-11-24T05:04:58;18.83;;;3.45;;
66087;SDS011;52872;52.994;6.940;2022-11-24T05:07:25;14.32;;;3.90;;
66087;SDS011;52872;52.994;6.940;2022-11-24T05:09:52;14.85;;;3.20;;
66087;SDS011;52872;52.994;6.940;2022-11-24T05:12:38;15.40;;;3.17;;
66087;SDS011;52872;52.994;6.940;2022-11-24T05:15:05;11.40;;;3.00;;
66087;SDS011;52872;52.994;6.940;2022-11-24T05:17:33;19.90;;;4.25;;
66087;SDS011;52872;52.994;6.940;2022-11-24T05:20:02;17.30;;;3.17;;
66087;SDS011;52872;52.994;6.940;2022-11-24T05:22:30;15.05;;;3.13;;
66087;SDS011;52872;52.994;6.940;2022-11-24T05:24:57;12.63;;;3.10;;
66087;SDS011;52872;52.994;6.940;2022-11-24T05:27:24;12.32;;;3.58;;
66087;SDS011;52872;52.994;6.940;2022-11-24T05:29:51;17.85;;;4.47;;
66087;SDS011;52872;52.994;6.940;2022-11-24T05:32:18;14.40;;;2.88;;
66087;SDS011;52872;52.994;6.940;2022-11-24T05:34:45;19.58;;;3.78;;
66087;SDS011;52872;52.994;6.940;2022-11-24T05:37:13;22.52;;;4.07;;
66087;SDS011;52872;52.994;6.940;2022-11-24T05:39:40;15.40;;;3.45;;
66087;SDS011;52872;52.994;6.940;2022-11-24T05:42:07;15.95;;;3.72;;
66087;SDS011;52872;52.994;6.940;2022-11-24T05:44:53;19.15;;;3.55;;
66087;SDS011;52872;52.994;6.940;2022-11-24T05:47:20;25.85;;;4.53;;
66087;SDS011;52872;52.994;6.940;2022-11-24T05:49:47;15.50;;;3.78;;
66087;SDS011;52872;52.994;6.940;2022-11-24T05:52:15;12.63;;;3.40;;
66087;SDS011;52872;52.994;6.940;2022-11-24T05:54:42;12.18;;;3.15;;
66087;SDS011;52872;52.994;6.940;2022-11-24T05:57:09;15.00;;;3.63;;
66087;SDS011;52872;52.994;6.940;2022-11-24T05:59:36;14.75;;;3.22;;
66087;SDS011;52872;52.994;6.940;2022-11-24T06:02:03;17.70;;;3.40;;
66087;SDS011;52872;52.994;6.940;2022-11-24T06:04:30;15.52;;;3.30;;
66087;SDS011;52872;52.994;6.940;2022-11-24T06:06:57;21.85;;;3.72;;
66087;SDS011;52872;52.994;6.940;2022-11-24T06:09:24;14.52;;;3.45;;
66087;SDS011;52872;52.994;6.940;2022-11-24T06:11:52;16.02;;;3.20;;
66087;SDS011;52872;52.994;6.940;2022-11-24T06:14:19;16.02;;;3.10;;
66087;SDS011;52872;52.994;6.940;2022-11-24T06:16:46;12.70;;;3.08;;
66087;SDS011;52872;52.994;6.940;2022-11-24T06:19:13;19.13;;;3.75;;
66087;SDS011;52872;52.994;6.940;2022-11-24T06:21:40;17.58;;;3.70;;
66087;SDS011;52872;52.994;6.940;2022-11-24T06:24:07;15.60;;;3.45;;
66087;SDS011;52872;52.994;6.940;2022-11-24T06:26:34;16.63;;;2.92;;
66087;SDS011;52872;52.994;6.940;2022-11-24T06:29:01;15.88;;;3.53;;
66087;SDS011;52872;52.994;6.940;2022-11-24T06:31:28;16.50;;;3.22;;
66087;SDS011;52872;52.994;6.940;2022-11-24T06:33:55;14.65;;;3.00;;
66087;SDS011;52872;52.994;6.940;2022-11-24T06:36:22;16.63;;;3.25;;
66087;SDS011;52872;52.994;6.940;2022-11-24T06:38:48;13.68;;;3.55;;
66087;SDS011;52872;52.994;6.940;2022-11-24T06:41:16;19.83;;;3.50;;
66087;SDS011;52872;52.994;6.940;2022-11-24T06:43:43;17.52;;;3.72;;
66087;SDS011;52872;52.994;6.940;2022-11-24T06:46:11;11.57;;;3.00;;
66087;SDS011;52872;52.994;6.940;2022-11-24T06:48:38;19.73;;;4.00;;
66087;SDS011;52872;52.994;6.940;2022-11-24T06:51:06;18.98;;;3.67;;
66087;SDS011;52872;52.994;6.940;2022-11-24T06:53:35;17.63;;;3.78;;
66087;SDS011;52872;52.994;6.940;2022-11-24T06:56:07;16.23;;;3.50;;
66087;SDS011;52872;52.994;6.940;2022-11-24T06:58:41;15.10;;;3.28;;
66087;SDS011;52872;52.994;6.940;2022-11-24T07:01:20;19.75;;;3.60;;
66087;SDS011;52872;52.994;6.940;2022-11-24T07:03:50;18.77;;;4.45;;
66087;SDS011;52872;52.994;6.940;2022-11-24T07:06:18;20.55;;;4.05;;
66087;SDS011;52872;52.994;6.940;2022-11-24T07:08:47;20.23;;;3.70;;
66087;SDS011;52872;52.994;6.940;2022-11-24T07:11:19;16.30;;;3.58;;
66087;SDS011;52872;52.994;6.940;2022-11-24T07:13:47;13.30;;;3.30;;
66087;SDS011;52872;52.994;6.940;2022-11-24T07:16:22;13.40;;;3.58;;
66087;SDS011;52872;52.994;6.940;2022-11-24T07:18:51;17.50;;;3.90;;
66087;SDS011;52872;52.994;6.940;2022-11-24T07:21:19;18.25;;;3.63;;
66087;SDS011;52872;52.994;6.940;2022-11-24T07:23:48;20.38;;;3.95;;
66087;SDS011;52872;52.994;6.940;2022-11-24T07:26:20;11.75;;;3.25;;
66087;SDS011;52872;52.994;6.940;2022-11-24T07:28:47;13.32;;;3.72;;
66087;SDS011;52872;52.994;6.940;2022-11-24T07:31:15;16.95;;;3.83;;
66087;SDS011;52872;52.994;6.940;2022-11-24T07:33:48;21.52;;;3.53;;
66087;SDS011;52872;52.994;6.940;2022-11-24T07:36:15;13.93;;;4.00;;
66087;SDS011;52872;52.994;6.940;2022-11-24T07:38:43;14.02;;;3.58;;
66087;SDS011;52872;52.994;6.940;2022-11-24T07:41:10;16.42;;;3.35;;
66087;SDS011;52872;52.994;6.940;2022-11-24T07:43:39;15.00;;;3.35;;
66087;SDS011;52872;52.994;6.940;2022-11-24T07:46:07;17.95;;;3.10;;
66087;SDS011;52872;52.994;6.940;2022-11-24T07:48:36;18.00;;;3.92;;
66087;SDS011;52872;52.994;6.940;2022-11-24T07:51:04;19.77;;;3.75;;
66087;SDS011;52872;52.994;6.940;2022-11-24T07:53:32;18.52;;;3.95;;
66087;SDS011;52872;52.994;6.940;2022-11-24T07:56:00;17.42;;;4.18;;
66087;SDS011;52872;52.994;6.940;2022-11-24T07:58:28;14.43;;;3.53;;
66087;SDS011;52872;52.994;6.940;2022-11-24T08:00:58;16.52;;;4.60;;
66087;SDS011;52872;52.994;6.940;2022-11-24T08:03:26;17.80;;;4.85;;
66087;SDS011;52872;52.994;6.940;2022-11-24T08:05:56;19.17;;;4.57;;
66087;SDS011;52872;52.994;6.940;2022-11-24T08:08:45;14.95;;;3.85;;
66087;SDS011;52872;52.994;6.940;2022-11-24T08:11:16;19.38;;;5.13;;
66087;SDS011;52872;52.994;6.940;2022-11-24T08:13:43;18.88;;;4.68;;
66087;SDS011;52872;52.994;6.940;2022-11-24T08:16:12;20.75;;;4.05;;
66087;SDS011;52872;52.994;6.940;2022-11-24T08:18:40;22.27;;;5.45;;
66087;SDS011;52872;52.994;6.940;2022-11-24T08:21:11;17.45;;;4.53;;
66087;SDS011;52872;52.994;6.940;2022-11-24T08:23:39;20.17;;;4.97;;
66087;SDS011;52872;52.994;6.940;2022-11-24T08:26:08;18.92;;;4.32;;
66087;SDS011;52872;52.994;6.940;2022-11-24T08:28:40;13.40;;;4.30;;
66087;SDS011;52872;52.994;6.940;2022-11-24T08:31:09;19.83;;;5.13;;
66087;SDS011;52872;52.994;6.940;2022-11-24T08:33:39;17.50;;;4.85;;
66087;SDS011;52872;52.994;6.940;2022-11-24T08:36:07;14.43;;;4.20;;
66087;SDS011;52872;52.994;6.940;2022-11-24T08:38:36;18.65;;;4.97;;
66087;SDS011;52872;52.994;6.940;2022-11-24T08:41:04;15.82;;;4.65;;
66087;SDS011;52872;52.994;6.940;2022-11-24T08:43:32;17.65;;;4.80;;
66087;SDS011;52872;52.994;6.940;2022-11-24T08:46:04;17.73;;;4.57;;
66087;SDS011;52872;52.994;6.940;2022-11-24T08:48:32;18.23;;;5.03;;
66087;SDS011;52872;52.994;6.940;2022-11-24T08:51:10;19.52;;;5.07;;
66087;SDS011;52872;52.994;6.940;2022-11-24T08:53:39;17.80;;;4.97;;
66087;SDS011;52872;52.994;6.940;2022-11-24T08:56:07;17.23;;;4.82;;
66087;SDS011;52872;52.994;6.940;2022-11-24T08:58:35;21.98;;;4.65;;
66087;SDS011;52872;52.994;6.940;2022-11-24T09:01:06;20.67;;;5.35;;
66087;SDS011;52872;52.994;6.940;2022-11-24T09:03:35;17.13;;;4.60;;
66087;SDS011;52872;52.994;6.940;2022-11-24T09:06:04;15.88;;;4.40;;
66087;SDS011;52872;52.994;6.940;2022-11-24T09:08:32;16.67;;;4.90;;
66087;SDS011;52872;52.994;6.940;2022-11-24T09:11:00;13.20;;;3.53;;
66087;SDS011;52872;52.994;6.940;2022-11-24T09:13:28;18.55;;;5.13;;
66087;SDS011;52872;52.994;6.940;2022-11-24T09:15:55;15.60;;;4.53;;
66087;SDS011;52872;52.994;6.940;2022-11-24T09:18:22;14.98;;;4.53;;
66087;SDS011;52872;52.994;6.940;2022-11-24T09:20:54;20.90;;;4.43;;
66087;SDS011;52872;52.994;6.940;2022-11-24T09:23:23;12.35;;;4.10;;
66087;SDS011;52872;52.994;6.940;2022-11-24T09:25:50;12.27;;;3.78;;
66087;SDS011;52872;52.994;6.940;2022-11-24T09:28:17;13.85;;;4.10;;
66087;SDS011;52872;52.994;6.940;2022-11-24T09:30:44;12.65;;;4.38;;
66087;SDS011;52872;52.994;6.940;2022-11-24T09:33:11;15.95;;;4.25;;
66087;SDS011;52872;52.994;6.940;2022-11-24T09:35:38;15.82;;;4.13;;
66087;SDS011;52872;52.994;6.940;2022-11-24T09:38:04;10.77;;;3.40;;
66087;SDS011;52872;52.994;6.940;2022-11-24T09:40:31;10.85;;;3.60;;
66087;SDS011;52872;52.994;6.940;2022-11-24T09:43:02;7.93;;;3.50;;
66087;SDS011;52872;52.994;6.940;2022-11-24T09:48:36;6.20;;;2.53;;
66087;SDS011;52872;52.994;6.940;2022-11-24T09:51:10;12.57;;;3.38;;
66087;SDS011;52872;52.994;6.940;2022-11-24T09:53:47;9.02;;;2.78;;
66087;SDS011;52872;52.994;6.940;2022-11-24T09:56:32;10.02;;;3.33;;
66087;SDS011;52872;52.994;6.940;2022-11-24T09:59:02;11.55;;;3.67;;
66087;SDS011;52872;52.994;6.940;2022-11-24T10:01:35;7.38;;;2.65;;
66087;SDS011;52872;52.994;6.940;2022-11-24T10:04:17;9.57;;;3.13;;
66087;SDS011;52872;52.994;6.940;2022-11-24T10:07:00;4.28;;;2.53;;
66087;SDS011;52872;52.994;6.940;2022-11-24T10:15:17;5.88;;;2.33;;
66087;SDS011;52872;52.994;6.940;2022-11-24T10:21:30;7.00;;;2.60;;
66087;SDS011;52872;52.994;6.940;2022-11-24T10:24:28;4.70;;;2.47;;
66087;SDS011;52872;52.994;6.940;2022-11-24T10:27:17;5.47;;;2.42;;
66087;SDS011;52872;52.994;6.940;2022-11-24T10:29:48;4.93;;;2.30;;
66087;SDS011;52872;52.994;6.940;2022-11-24T10:32:19;4.40;;;2.60;;
66087;SDS011;52872;52.994;6.940;2022-11-24T10:34:50;3.85;;;2.15;;
66087;SDS011;52872;52.994;6.940;2022-11-24T10:37:22;4.47;;;2.35;;
66087;SDS011;52872;52.994;6.940;2022-11-24T10:43:02;4.63;;;2.10;;
66087;SDS011;52872;52.994;6.940;2022-11-24T10:46:13;3.88;;;2.10;;
66087;SDS011;52872;52.994;6.940;2022-11-24T10:48:46;3.17;;;2.03;;
66087;SDS011;52872;52.994;6.940;2022-11-24T10:54:21;4.70;;;2.40;;
66087;SDS011;52872;52.994;6.940;2022-11-24T10:56:50;3.75;;;2.13;;
66087;SDS011;52872;52.994;6.940;2022-11-24T11:04:52;9.00;;;3.15;;
66087;SDS011;52872;52.994;6.940;2022-11-24T11:07:20;7.13;;;2.60;;
66087;SDS011;52872;52.994;6.940;2022-11-24T11:09:49;4.97;;;2.40;;
66087;SDS011;52872;52.994;6.940;2022-11-24T11:12:26;4.55;;;2.60;;
66087;SDS011;52872;52.994;6.940;2022-11-24T11:15:29;5.03;;;3.08;;
66087;SDS011;52872;52.994;6.940;2022-11-24T11:17:57;3.78;;;2.90;;
66087;SDS011;52872;52.994;6.940;2022-11-24T11:20:30;5.30;;;3.10;;
66087;SDS011;52872;52.994;6.940;2022-11-24T11:23:00;6.32;;;2.95;;
66087;SDS011;52872;52.994;6.940;2022-11-24T11:25:33;6.45;;;3.25;;
66087;SDS011;52872;52.994;6.940;2022-11-24T11:28:16;7.80;;;2.95;;
66087;SDS011;52872;52.994;6.940;2022-11-24T11:31:03;5.35;;;3.05;;
66087;SDS011;52872;52.994;6.940;2022-11-24T11:33:43;5.72;;;2.88;;
66087;SDS011;52872;52.994;6.940;2022-11-24T11:36:33;6.43;;;3.38;;
66087;SDS011;52872;52.994;6.940;2022-11-24T11:41:52;6.18;;;3.28;;
66087;SDS011;52872;52.994;6.940;2022-11-24T11:44:37;5.75;;;3.30;;
66087;SDS011;52872;52.994;6.940;2022-11-24T11:50:12;5.95;;;3.67;;
66087;SDS011;52872;52.994;6.940;2022-11-24T11:55:48;8.83;;;3.77;;
66087;SDS011;52872;52.994;6.940;2022-11-24T12:09:35;8.65;;;3.35;;
66087;SDS011;52872;52.994;6.940;2022-11-24T12:17:41;5.95;;;3.60;;
66087;SDS011;52872;52.994;6.940;2022-11-24T12:31:48;7.95;;;4.15;;
66087;SDS011;52872;52.994;6.940;2022-11-24T12:34:33;5.85;;;3.72;;
66087;SDS011;52872;52.994;6.940;2022-11-24T12:45:00;6.37;;;3.50;;
66087;SDS011;52872;52.994;6.940;2022-11-24T12:50:50;8.50;;;3.80;;
66087;SDS011;52872;52.994;6.940;2022-11-24T12:56:03;8.50;;;4.18;;
66087;SDS011;52872;52.994;6.940;2022-11-24T12:58:44;12.98;;;4.68;;
66087;SDS011;52872;52.994;6.940;2022-11-24T13:01:26;8.80;;;4.15;;
66087;SDS011;52872;52.994;6.940;2022-11-24T13:04:09;10.10;;;4.32;;
66087;SDS011;52872;52.994;6.940;2022-11-24T13:07:08;10.20;;;4.25;;
66087;SDS011;52872;52.994;6.940;2022-11-24T13:09:36;10.75;;;4.43;;
66087;SDS011;52872;52.994;6.940;2022-11-24T13:12:23;6.35;;;3.90;;
66087;SDS011;52872;52.994;6.940;2022-11-24T13:14:50;11.23;;;4.80;;
66087;SDS011;52872;52.994;6.940;2022-11-24T13:28:59;7.28;;;3.90;;
66087;SDS011;52872;52.994;6.940;2022-11-24T13:31:38;6.90;;;4.13;;
66087;SDS011;52872;52.994;6.940;2022-11-24T13:42:25;9.48;;;4.80;;
66087;SDS011;52872;52.994;6.940;2022-11-24T13:45:46;7.07;;;4.22;;
66087;SDS011;52872;52.994;6.940;2022-11-24T13:53:34;10.93;;;5.28;;
66087;SDS011;52872;52.994;6.940;2022-11-24T13:58:40;11.45;;;5.72;;
66087;SDS011;52872;52.994;6.940;2022-11-24T14:01:32;9.60;;;5.57;;
66087;SDS011;52872;52.994;6.940;2022-11-24T14:04:04;11.85;;;4.68;;
66087;SDS011;52872;52.994;6.940;2022-11-24T14:06:59;12.40;;;6.07;;
66087;SDS011;52872;52.994;6.940;2022-11-24T14:09:41;14.32;;;5.80;;
66087;SDS011;52872;52.994;6.940;2022-11-24T14:12:18;9.13;;;5.45;;
66087;SDS011;52872;52.994;6.940;2022-11-24T14:14:46;12.68;;;5.78;;
66087;SDS011;52872;52.994;6.940;2022-11-24T14:17:19;16.20;;;5.78;;
66087;SDS011;52872;52.994;6.940;2022-11-24T14:19:49;12.85;;;4.93;;
66087;SDS011;52872;52.994;6.940;2022-11-24T14:22:22;8.32;;;5.50;;
66087;SDS011;52872;52.994;6.940;2022-11-24T14:24:59;13.77;;;5.65;;
66087;SDS011;52872;52.994;6.940;2022-11-24T14:27:35;13.98;;;5.63;;
66087;SDS011;52872;52.994;6.940;2022-11-24T14:32:38;13.25;;;5.43;;
66087;SDS011;52872;52.994;6.940;2022-11-24T14:35:22;12.00;;;4.60;;
66087;SDS011;52872;52.994;6.940;2022-11-24T14:37:51;13.57;;;5.22;;
66087;SDS011;52872;52.994;6.940;2022-11-24T14:45:57;12.98;;;5.10;;
66087;SDS011;52872;52.994;6.940;2022-11-24T14:48:27;12.27;;;5.95;;
66087;SDS011;52872;52.994;6.940;2022-11-24T14:51:04;80.53;;;43.50;;
66087;SDS011;52872;52.994;6.940;2022-11-24T14:53:33;37.97;;;25.17;;
66087;SDS011;52872;52.994;6.940;2022-11-24T14:56:08;20.55;;;14.38;;
66087;SDS011;52872;52.994;6.940;2022-11-24T14:58:35;12.55;;;8.27;;
66087;SDS011;52872;52.994;6.940;2022-11-24T15:01:08;21.33;;;12.70;;
66087;SDS011;52872;52.994;6.940;2022-11-24T15:07:13;12.80;;;6.72;;
66087;SDS011;52872;52.994;6.940;2022-11-24T15:15:02;13.43;;;6.25;;
66087;SDS011;52872;52.994;6.940;2022-11-24T15:17:33;15.90;;;7.75;;
66087;SDS011;52872;52.994;6.940;2022-11-24T15:20:09;11.82;;;5.88;;
66087;SDS011;52872;52.994;6.940;2022-11-24T15:22:47;12.48;;;6.85;;
66087;SDS011;52872;52.994;6.940;2022-11-24T15:27:55;11.73;;;6.15;;
66087;SDS011;52872;52.994;6.940;2022-11-24T15:30:23;16.90;;;9.98;;
66087;SDS011;52872;52.994;6.940;2022-11-24T15:32:50;24.45;;;14.02;;
66087;SDS011;52872;52.994;6.940;2022-11-24T15:35:18;19.80;;;14.90;;
66087;SDS011;52872;52.994;6.940;2022-11-24T15:37:48;16.27;;;10.93;;
66087;SDS011;52872;52.994;6.940;2022-11-24T15:40:15;16.48;;;7.63;;
66087;SDS011;52872;52.994;6.940;2022-11-24T15:42:50;15.60;;;6.10;;
66087;SDS011;52872;52.994;6.940;2022-11-24T15:45:20;14.15;;;6.65;;
66087;SDS011;52872;52.994;6.940;2022-11-24T15:47:48;19.65;;;7.15;;
66087;SDS011;52872;52.994;6.940;2022-11-24T15:50:15;17.65;;;6.32;;
66087;SDS011;52872;52.994;6.940;2022-11-24T15:52:43;16.80;;;6.78;;
66087;SDS011;52872;52.994;6.940;2022-11-24T15:55:20;15.60;;;6.72;;
66087;SDS011;52872;52.994;6.940;2022-11-24T15:57:47;11.18;;;5.90;;
66087;SDS011;52872;52.994;6.940;2022-11-24T16:00:18;17.80;;;7.53;;
66087;SDS011;52872;52.994;6.940;2022-11-24T16:02:47;17.15;;;6.78;;
66087;SDS011;52872;52.994;6.940;2022-11-24T16:05:14;18.80;;;7.25;;
66087;SDS011;52872;52.994;6.940;2022-11-24T16:07:42;17.42;;;7.50;;
66087;SDS011;52872;52.994;6.940;2022-11-24T16:10:23;15.45;;;8.80;;
66087;SDS011;52872;52.994;6.940;2022-11-24T16:12:54;19.50;;;14.63;;
66087;SDS011;52872;52.994;6.940;2022-11-24T16:15:21;27.33;;;11.98;;
66087;SDS011;52872;52.994;6.940;2022-11-24T16:17:48;22.05;;;10.85;;
66087;SDS011;52872;52.994;6.940;2022-11-24T16:20:15;19.23;;;9.05;;
66087;SDS011;52872;52.994;6.940;2022-11-24T16:22:43;17.40;;;11.35;;
66087;SDS011;52872;52.994;6.940;2022-11-24T16:25:10;18.35;;;9.18;;
66087;SDS011;52872;52.994;6.940;2022-11-24T16:27:37;23.67;;;17.23;;
66087;SDS011;52872;52.994;6.940;2022-11-24T16:30:04;22.73;;;14.90;;
66087;SDS011;52872;52.994;6.940;2022-11-24T16:32:32;26.38;;;21.77;;
66087;SDS011;52872;52.994;6.940;2022-11-24T16:34:59;15.25;;;10.15;;
66087;SDS011;52872;52.994;6.940;2022-11-24T16:37:26;21.42;;;13.32;;
66087;SDS011;52872;52.994;6.940;2022-11-24T16:39:53;21.27;;;12.20;;
66087;SDS011;52872;52.994;6.940;2022-11-24T16:42:20;17.98;;;10.40;;
66087;SDS011;52872;52.994;6.940;2022-11-24T16:44:47;23.40;;;14.95;;
66087;SDS011;52872;52.994;6.940;2022-11-24T16:47:14;26.70;;;17.27;;
66087;SDS011;52872;52.994;6.940;2022-11-24T16:49:41;18.15;;;11.73;;
66087;SDS011;52872;52.994;6.940;2022-11-24T16:52:08;20.17;;;8.35;;
66087;SDS011;52872;52.994;6.940;2022-11-24T16:54:35;17.30;;;7.32;;
66087;SDS011;52872;52.994;6.940;2022-11-24T16:57:02;14.27;;;7.00;;
66087;SDS011;52872;52.994;6.940;2022-11-24T16:59:29;10.90;;;8.20;;
66087;SDS011;52872;52.994;6.940;2022-11-24T17:01:56;19.50;;;7.15;;
66087;SDS011;52872;52.994;6.940;2022-11-24T17:04:23;15.13;;;6.53;;
66087;SDS011;52872;52.994;6.940;2022-11-24T17:06:50;18.92;;;7.20;;
66087;SDS011;52872;52.994;6.940;2022-11-24T17:09:17;15.27;;;7.13;;
66087;SDS011;52872;52.994;6.940;2022-11-24T17:11:44;15.85;;;7.47;;